createdAt,value
2022-11-16T00:01:43.019Z,77.90
2022-11-16T00:04:12.088Z,78.00
2022-11-16T00:06:40.353Z,78.00
2022-11-16T00:09:23.376Z,77.90
2022-11-16T00:11:54.280Z,77.90
2022-11-16T00:14:22.824Z,78.00
2022-11-16T00:16:50.914Z,77.90
2022-11-16T00:19:19.136Z,77.90
2022-11-16T00:21:47.211Z,78.00
2022-11-16T00:24:15.457Z,78.20
2022-11-16T00:26:43.759Z,78.00
2022-11-16T00:29:15.420Z,78.10
2022-11-16T00:31:43.515Z,78.10
2022-11-16T00:34:11.698Z,78.10
2022-11-16T00:36:44.942Z,78.00
2022-11-16T00:39:13.386Z,78.00
2022-11-16T00:41:41.717Z,78.10
2022-11-16T00:44:09.964Z,78.20
2022-11-16T00:46:39.603Z,78.20
2022-11-16T00:49:07.887Z,78.20
2022-11-16T00:51:36.291Z,78.20
2022-11-16T00:54:04.539Z,78.20
2022-11-16T00:56:32.612Z,78.20
2022-11-16T00:59:00.731Z,78.20
2022-11-16T01:01:28.998Z,78.30
2022-11-16T01:03:58.624Z,78.20
2022-11-16T01:06:26.675Z,78.20
2022-11-16T01:08:57.643Z,78.20
2022-11-16T01:11:57.668Z,78.20
2022-11-16T01:14:25.736Z,78.30
2022-11-16T01:16:53.849Z,78.30
2022-11-16T01:19:23.474Z,78.40
2022-11-16T01:21:51.540Z,78.50
2022-11-16T01:24:19.582Z,78.40
2022-11-16T01:26:47.624Z,78.40
2022-11-16T01:29:15.904Z,78.50
2022-11-16T01:31:43.926Z,78.50
2022-11-16T01:34:11.976Z,78.50
2022-11-16T01:36:41.369Z,78.50
2022-11-16T01:39:11.180Z,78.50
2022-11-16T01:41:45.173Z,78.60
2022-11-16T01:44:46.542Z,78.50
2022-11-16T01:47:16.240Z,78.60
2022-11-16T01:49:49.506Z,78.70
2022-11-16T01:52:20.776Z,78.70
2022-11-16T01:54:49.459Z,78.80
2022-11-16T01:57:19.779Z,78.70
2022-11-16T01:59:48.231Z,78.70
2022-11-16T02:02:16.333Z,78.80
2022-11-16T02:04:44.402Z,78.70
2022-11-16T02:07:15.720Z,78.80
2022-11-16T02:10:02.516Z,78.90
2022-11-16T02:12:58.435Z,78.80
2022-11-16T02:15:28.282Z,78.80
2022-11-16T02:18:05.896Z,78.90
2022-11-16T02:21:01.230Z,78.90
2022-11-16T02:23:53.275Z,79.10
2022-11-16T02:26:39.487Z,78.90
2022-11-16T02:29:20.496Z,78.90
2022-11-16T02:31:52.138Z,79.00
2022-11-16T02:34:20.625Z,79.00
2022-11-16T02:36:48.685Z,79.00
2022-11-16T02:39:18.615Z,79.10
2022-11-16T02:41:47.214Z,79.10
2022-11-16T02:44:17.187Z,79.10
2022-11-16T02:46:45.985Z,79.10
2022-11-16T02:49:15.692Z,79.20
2022-11-16T02:51:43.760Z,79.30
2022-11-16T02:54:13.128Z,79.40
2022-11-16T02:56:43.716Z,79.40
2022-11-16T02:59:16.487Z,79.40
2022-11-16T03:01:49.000Z,79.30
2022-11-16T03:04:24.676Z,79.40
2022-11-16T03:06:52.781Z,79.30
2022-11-16T03:09:22.560Z,79.50
2022-11-16T03:12:00.805Z,79.40
2022-11-16T03:14:32.082Z,79.50
2022-11-16T03:17:02.452Z,79.50
2022-11-16T03:19:33.709Z,79.50
2022-11-16T03:22:05.112Z,79.50
2022-11-16T03:24:33.196Z,79.50
2022-11-16T03:27:02.601Z,79.50
2022-11-16T03:29:32.024Z,79.60
2022-11-16T03:32:04.933Z,79.40
2022-11-16T03:34:34.379Z,79.50
2022-11-16T03:37:05.596Z,79.60
2022-11-16T03:39:35.191Z,79.60
2022-11-16T03:42:04.221Z,79.70
2022-11-16T03:44:32.275Z,79.60
2022-11-16T03:47:02.320Z,79.50
2022-11-16T03:49:31.298Z,79.60
2022-11-16T03:51:59.333Z,79.70
2022-11-16T03:54:27.514Z,79.60
2022-11-16T03:56:55.542Z,79.60
2022-11-16T03:59:23.794Z,79.80
2022-11-16T04:01:52.610Z,79.90
2022-11-16T04:04:39.907Z,79.60
2022-11-16T04:07:26.661Z,79.80
2022-11-16T04:10:18.215Z,79.90
2022-11-16T04:13:04.277Z,79.80
2022-11-16T04:15:49.791Z,79.70
2022-11-16T04:18:35.718Z,79.70
2022-11-16T04:21:23.071Z,79.60
2022-11-16T04:24:08.692Z,79.60
2022-11-16T04:29:36.402Z,79.60
2022-11-16T04:32:21.843Z,79.60
2022-11-16T04:35:07.156Z,79.50
2022-11-16T04:37:52.643Z,79.70
2022-11-16T04:40:21.616Z,79.60
2022-11-16T04:42:56.066Z,79.80
2022-11-16T04:45:42.120Z,79.90
2022-11-16T04:48:10.314Z,79.70
2022-11-16T04:50:38.495Z,79.60
2022-11-16T04:53:08.000Z,79.70
2022-11-16T04:55:36.266Z,79.80
2022-11-16T04:58:04.388Z,79.80
2022-11-16T05:00:32.459Z,79.70
2022-11-16T05:03:01.788Z,79.80
2022-11-16T05:05:30.129Z,79.70
2022-11-16T05:07:58.179Z,79.80
2022-11-16T05:10:27.648Z,79.70
2022-11-16T05:12:55.743Z,79.90
2022-11-16T05:15:26.646Z,80.00
2022-11-16T05:17:55.818Z,79.80
2022-11-16T05:20:41.332Z,79.90
2022-11-16T05:23:29.689Z,79.80
2022-11-16T05:25:59.075Z,79.80
2022-11-16T05:28:27.134Z,79.80
2022-11-16T05:30:55.160Z,79.80
2022-11-16T05:33:23.272Z,79.80
2022-11-16T05:35:51.727Z,79.80
2022-11-16T05:38:19.884Z,79.80
2022-11-16T05:40:47.977Z,79.90
2022-11-16T05:43:17.420Z,79.90
2022-11-16T05:45:45.608Z,79.90
2022-11-16T05:48:13.621Z,79.90
2022-11-16T05:50:43.218Z,79.90
2022-11-16T05:53:11.665Z,79.80
2022-11-16T05:55:39.811Z,79.90
2022-11-16T05:58:07.872Z,79.90
2022-11-16T06:00:37.342Z,79.80
2022-11-16T06:03:05.639Z,80.00
2022-11-16T06:05:40.232Z,79.80
2022-11-16T06:08:08.688Z,79.90
2022-11-16T06:10:37.046Z,79.80
2022-11-16T06:13:05.109Z,79.90
2022-11-16T06:15:33.236Z,79.80
2022-11-16T06:18:02.657Z,79.80
2022-11-16T06:20:30.907Z,79.90
2022-11-16T06:22:58.945Z,79.90
2022-11-16T06:25:27.041Z,79.90
2022-11-16T06:27:55.109Z,79.80
2022-11-16T06:30:23.268Z,79.90
2022-11-16T06:32:51.345Z,79.90
2022-11-16T06:35:20.943Z,79.90
2022-11-16T06:37:57.105Z,79.90
2022-11-16T06:40:25.414Z,80.00
2022-11-16T06:42:53.457Z,80.00
2022-11-16T06:45:21.571Z,80.00
2022-11-16T06:47:49.839Z,79.90
2022-11-16T06:50:19.416Z,79.90
2022-11-16T06:52:49.301Z,79.90
2022-11-16T06:55:17.538Z,80.00
2022-11-16T06:57:46.311Z,80.00
2022-11-16T07:00:15.602Z,80.00
2022-11-16T07:02:43.662Z,80.00
2022-11-16T07:05:11.750Z,79.90
2022-11-16T07:07:39.793Z,80.00
2022-11-16T07:10:13.042Z,80.00
2022-11-16T07:12:41.372Z,79.90
2022-11-16T07:15:10.115Z,79.90
2022-11-16T07:17:38.298Z,80.00
2022-11-16T07:20:07.355Z,79.90
2022-11-16T07:22:35.427Z,79.90
2022-11-16T07:25:03.438Z,79.90
2022-11-16T07:27:32.844Z,79.90
2022-11-16T07:30:02.299Z,79.80
2022-11-16T07:32:31.240Z,79.90
2022-11-16T07:34:59.769Z,80.00
2022-11-16T07:37:27.888Z,79.90
2022-11-16T07:39:55.977Z,80.00
2022-11-16T07:42:24.003Z,80.00
2022-11-16T07:44:53.422Z,80.00
2022-11-16T07:47:21.466Z,80.00
2022-11-16T07:49:49.577Z,79.90
2022-11-16T07:52:17.710Z,79.90
2022-11-16T07:54:45.774Z,80.00
2022-11-16T07:57:13.836Z,80.10
2022-11-16T07:59:44.854Z,80.10
2022-11-16T08:02:14.485Z,79.90
2022-11-16T08:04:42.682Z,80.00
2022-11-16T08:07:11.563Z,79.90
2022-11-16T08:09:40.823Z,79.90
2022-11-16T08:12:09.023Z,79.90
2022-11-16T08:14:37.071Z,79.90
2022-11-16T08:17:05.146Z,79.90
2022-11-16T08:19:34.571Z,79.90
2022-11-16T08:22:02.748Z,80.00
2022-11-16T08:24:31.012Z,79.90
2022-11-16T08:26:59.447Z,79.90
2022-11-16T08:29:27.499Z,79.90
2022-11-16T08:31:55.562Z,79.90
2022-11-16T08:34:23.654Z,79.90
2022-11-16T08:36:53.430Z,79.90
2022-11-16T08:39:21.564Z,80.00
2022-11-16T08:41:49.675Z,79.90
2022-11-16T08:44:18.042Z,79.90
2022-11-16T08:46:46.189Z,79.80
2022-11-16T08:49:17.119Z,80.00
2022-11-16T08:51:45.218Z,80.00
2022-11-16T08:54:14.656Z,79.90
2022-11-16T08:56:42.702Z,79.90
2022-11-16T08:59:11.262Z,79.90
2022-11-16T09:01:39.385Z,79.90
2022-11-16T09:04:07.632Z,79.90
2022-11-16T09:06:36.941Z,79.90
2022-11-16T09:09:05.177Z,79.90
2022-11-16T09:11:34.596Z,80.00
2022-11-16T09:14:02.817Z,79.90
2022-11-16T09:16:30.873Z,79.90
2022-11-16T09:18:58.923Z,79.90
2022-11-16T09:21:29.128Z,79.80
2022-11-16T09:23:57.558Z,79.90
2022-11-16T09:26:26.377Z,79.90
2022-11-16T09:28:58.279Z,79.80
2022-11-16T09:31:27.473Z,80.00
2022-11-16T09:33:58.218Z,80.00
2022-11-16T09:36:26.458Z,79.90
2022-11-16T09:42:02.742Z,79.80
2022-11-16T09:44:53.310Z,79.90
2022-11-16T09:47:23.099Z,79.90
2022-11-16T09:49:56.789Z,80.00
2022-11-16T09:52:29.776Z,79.90
2022-11-16T09:54:58.063Z,79.90
2022-11-16T09:57:28.157Z,79.90
2022-11-16T09:59:59.054Z,79.90
2022-11-16T10:02:28.352Z,79.90
2022-11-16T10:04:59.049Z,79.90
2022-11-16T10:07:29.167Z,79.90
2022-11-16T10:09:57.382Z,79.80
2022-11-16T10:12:26.703Z,79.80
2022-11-16T10:15:07.890Z,79.90
2022-11-16T10:17:43.913Z,79.70
2022-11-16T10:20:29.184Z,79.70
2022-11-16T10:23:01.473Z,79.60
2022-11-16T10:25:30.893Z,79.60
2022-11-16T10:28:18.318Z,79.50
2022-11-16T10:30:50.029Z,79.60
2022-11-16T10:33:19.737Z,79.60
2022-11-16T10:35:51.995Z,79.60
2022-11-16T10:38:21.576Z,79.60
2022-11-16T10:40:52.243Z,79.60
2022-11-16T10:43:30.469Z,79.60
2022-11-16T10:46:01.656Z,79.50
2022-11-16T10:48:37.214Z,79.40
2022-11-16T10:51:05.688Z,79.50
2022-11-16T10:53:35.180Z,79.50
2022-11-16T10:56:18.612Z,79.40
2022-11-16T10:58:54.180Z,79.40
2022-11-16T11:01:31.936Z,79.40
2022-11-16T11:04:15.184Z,79.40
2022-11-16T11:06:43.348Z,79.30
2022-11-16T11:09:24.929Z,79.30
2022-11-16T11:12:17.629Z,79.30
2022-11-16T11:15:02.284Z,79.20
2022-11-16T11:17:32.214Z,79.20
2022-11-16T11:20:01.555Z,79.20
2022-11-16T11:22:29.889Z,79.20
2022-11-16T11:24:57.995Z,79.10
2022-11-16T11:27:28.107Z,79.10
2022-11-16T11:29:58.594Z,79.10
2022-11-16T11:32:31.026Z,79.10
2022-11-16T11:35:01.695Z,79.00
2022-11-16T11:37:31.661Z,79.00
2022-11-16T11:40:19.412Z,79.00
2022-11-16T11:42:53.903Z,79.00
2022-11-16T11:45:22.801Z,79.00
2022-11-16T11:48:00.533Z,78.90
2022-11-16T11:50:37.614Z,78.90
2022-11-16T11:53:08.232Z,78.90
2022-11-16T11:55:36.349Z,78.90
2022-11-16T11:58:04.929Z,78.90
2022-11-16T12:00:38.005Z,78.90
2022-11-16T12:03:37.041Z,78.90
2022-11-16T12:06:11.089Z,78.80
2022-11-16T12:09:04.808Z,78.90
2022-11-16T12:11:38.881Z,78.90
2022-11-16T12:14:15.476Z,78.90
2022-11-16T12:16:46.824Z,78.80
2022-11-16T12:19:37.150Z,78.80
2022-11-16T12:22:12.542Z,78.80
2022-11-16T12:24:48.742Z,78.80
2022-11-16T12:27:19.476Z,78.80
2022-11-16T12:29:51.930Z,78.80
2022-11-16T12:32:40.937Z,78.80
2022-11-16T12:35:20.987Z,78.80
2022-11-16T12:37:55.757Z,78.80
2022-11-16T12:40:31.935Z,78.70
2022-11-16T12:43:00.809Z,78.80
2022-11-16T12:45:47.000Z,78.70
2022-11-16T12:48:30.032Z,78.70
2022-11-16T12:50:58.831Z,78.70
2022-11-16T12:53:44.827Z,78.70
2022-11-16T12:56:16.372Z,78.70
2022-11-16T12:58:55.504Z,78.70
2022-11-16T13:01:25.743Z,78.70
2022-11-16T13:03:55.044Z,78.60
2022-11-16T13:06:28.382Z,78.60
2022-11-16T13:09:00.437Z,78.60
2022-11-16T13:11:31.705Z,78.70
2022-11-16T13:14:01.591Z,78.60
2022-11-16T13:16:30.169Z,78.60
2022-11-16T13:18:58.303Z,78.60
2022-11-16T13:21:42.682Z,78.60
2022-11-16T13:24:21.676Z,78.60
2022-11-16T13:26:52.845Z,78.60
2022-11-16T13:29:27.276Z,78.60
2022-11-16T13:31:58.617Z,78.60
2022-11-16T13:34:28.209Z,78.50
2022-11-16T13:36:56.280Z,78.60
2022-11-16T13:40:06.336Z,78.50
2022-11-16T13:42:39.934Z,78.50
2022-11-16T13:45:09.576Z,78.50
2022-11-16T13:47:37.600Z,78.50
2022-11-16T13:50:06.725Z,78.50
2022-11-16T13:53:28.365Z,78.50
2022-11-16T13:55:33.288Z,78.50
2022-11-16T13:58:02.187Z,78.40
2022-11-16T14:00:41.276Z,78.50
2022-11-16T14:03:29.545Z,78.50
2022-11-16T14:05:57.687Z,78.50
2022-11-16T14:08:51.138Z,78.40
2022-11-16T14:11:36.761Z,78.40
2022-11-16T14:14:06.924Z,78.40
2022-11-16T14:16:55.807Z,78.40
2022-11-16T14:19:54.902Z,78.40
2022-11-16T14:22:58.564Z,78.40
2022-11-16T14:25:40.261Z,78.30
2022-11-16T14:28:30.737Z,78.30
2022-11-16T14:31:07.232Z,78.30
2022-11-16T14:33:41.018Z,78.30
2022-11-16T14:36:09.799Z,78.30
2022-11-16T14:38:38.966Z,78.20
2022-11-16T14:41:07.803Z,78.30
2022-11-16T14:43:39.906Z,78.30
2022-11-16T14:46:09.930Z,78.30
2022-11-16T14:48:44.345Z,78.20
2022-11-16T14:51:14.451Z,78.20
2022-11-16T14:53:47.648Z,78.20
2022-11-16T14:56:16.532Z,78.20
2022-11-16T14:58:53.793Z,78.20
2022-11-16T15:01:23.640Z,78.20
2022-11-16T15:03:55.418Z,78.10
2022-11-16T15:06:23.547Z,78.10
2022-11-16T15:08:54.276Z,78.10
2022-11-16T15:11:24.772Z,78.10
2022-11-16T15:13:54.950Z,78.10
2022-11-16T15:16:22.989Z,78.00
2022-11-16T15:18:58.705Z,78.00
2022-11-16T15:21:27.045Z,78.00
2022-11-16T15:24:23.528Z,78.00
2022-11-16T15:26:43.081Z,78.00
2022-11-16T15:29:17.523Z,78.00
2022-11-16T15:31:45.552Z,78.00
2022-11-16T15:34:13.873Z,78.00
2022-11-16T15:36:42.129Z,78.00
2022-11-16T15:39:17.440Z,78.00
2022-11-16T15:41:46.059Z,77.90
2022-11-16T15:44:17.133Z,77.90
2022-11-16T15:46:46.414Z,77.90
2022-11-16T15:49:20.852Z,77.90
2022-11-16T15:51:49.002Z,77.90
2022-11-16T15:54:23.524Z,77.90
2022-11-16T15:56:52.814Z,77.90
2022-11-16T15:59:25.244Z,77.90
2022-11-16T16:01:53.349Z,77.90
2022-11-16T16:04:24.552Z,77.90
2022-11-16T16:06:53.416Z,77.90
2022-11-16T16:09:26.982Z,77.80
2022-11-16T16:11:56.030Z,77.80
2022-11-16T16:14:28.941Z,77.90
2022-11-16T16:16:58.323Z,77.80
2022-11-16T16:19:33.236Z,77.80
2022-11-16T16:22:01.322Z,77.80
2022-11-16T16:24:37.302Z,77.80
2022-11-16T16:27:13.641Z,77.80
2022-11-16T16:29:43.084Z,77.80
2022-11-16T16:32:14.525Z,77.80
2022-11-16T16:34:42.657Z,77.80
2022-11-16T16:37:12.909Z,77.80
2022-11-16T16:39:42.216Z,77.80
2022-11-16T16:42:11.733Z,77.80
2022-11-16T16:44:47.361Z,77.80
2022-11-16T16:47:15.538Z,77.80
2022-11-16T16:49:43.616Z,77.80
2022-11-16T16:52:12.372Z,77.70
2022-11-16T16:54:40.509Z,77.70
2022-11-16T16:57:12.518Z,77.70
2022-11-16T16:59:40.692Z,77.70
2022-11-16T17:02:11.156Z,77.70
2022-11-16T17:04:39.234Z,77.70
2022-11-16T17:07:07.491Z,77.70
2022-11-16T17:09:35.635Z,77.70
2022-11-16T17:12:03.699Z,77.70
2022-11-16T17:14:31.869Z,77.70
2022-11-16T17:17:02.901Z,77.60
2022-11-16T17:19:32.291Z,77.60
2022-11-16T17:22:00.426Z,77.70
2022-11-16T17:24:28.447Z,77.60
2022-11-16T17:26:56.453Z,77.60
2022-11-16T17:29:24.560Z,77.60
2022-11-16T17:31:52.596Z,77.60
2022-11-16T17:34:20.786Z,77.60
2022-11-16T17:36:50.245Z,77.60
2022-11-16T17:39:19.219Z,77.60
2022-11-16T17:41:47.588Z,77.60
2022-11-16T17:44:21.586Z,77.60
2022-11-16T17:46:50.436Z,77.60
2022-11-16T17:49:18.454Z,77.60
2022-11-16T17:51:46.495Z,77.60
2022-11-16T17:54:15.960Z,77.50
2022-11-16T17:56:44.017Z,77.50
2022-11-16T17:59:12.176Z,77.50
2022-11-16T18:01:40.441Z,77.50
2022-11-16T18:04:08.556Z,77.50
2022-11-16T18:06:36.731Z,77.50
2022-11-16T18:09:04.804Z,77.50
2022-11-16T18:11:34.264Z,77.50
2022-11-16T18:14:03.902Z,77.40
2022-11-16T18:16:32.681Z,77.40
2022-11-16T18:19:01.319Z,77.40
2022-11-16T18:21:29.422Z,77.40
2022-11-16T18:23:59.158Z,77.40
2022-11-16T18:26:27.488Z,77.40
2022-11-16T18:28:56.903Z,77.40
2022-11-16T18:31:25.384Z,77.30
2022-11-16T18:33:53.583Z,77.30
2022-11-16T18:36:21.930Z,77.30
2022-11-16T18:38:50.020Z,77.30
2022-11-16T18:41:20.312Z,77.30
2022-11-16T18:43:52.403Z,77.30
2022-11-16T18:46:22.659Z,77.30
2022-11-16T18:48:50.819Z,77.30
2022-11-16T18:51:19.007Z,77.30
2022-11-16T18:53:47.116Z,77.30
2022-11-16T18:56:15.306Z,77.20
2022-11-16T18:58:52.440Z,77.20
2022-11-16T19:01:23.420Z,77.20
2022-11-16T19:03:51.778Z,77.20
2022-11-16T19:06:19.868Z,77.10
2022-11-16T19:08:54.978Z,77.20
2022-11-16T19:11:24.035Z,77.10
2022-11-16T19:14:00.711Z,77.10
2022-11-16T19:16:30.374Z,77.10
2022-11-16T19:18:58.397Z,77.10
2022-11-16T19:21:26.548Z,77.10
2022-11-16T19:23:55.141Z,77.10
2022-11-16T19:26:23.918Z,77.10
2022-11-16T19:28:52.189Z,77.10
2022-11-16T19:31:21.271Z,77.00
2022-11-16T19:33:54.392Z,77.00
2022-11-16T19:36:22.798Z,77.00
2022-11-16T19:38:50.922Z,77.00
2022-11-16T19:41:20.507Z,76.90
2022-11-16T19:43:48.554Z,77.00
2022-11-16T19:46:17.539Z,77.00
2022-11-16T19:48:45.809Z,77.00
2022-11-16T19:51:16.774Z,77.00
2022-11-16T19:53:44.859Z,76.90
2022-11-16T19:56:14.170Z,76.90
2022-11-16T19:58:42.344Z,76.90
2022-11-16T20:01:11.939Z,77.00
2022-11-16T20:03:40.512Z,76.80
2022-11-16T20:06:09.650Z,76.90
2022-11-16T20:08:39.278Z,76.90
2022-11-16T20:11:14.112Z,76.80
2022-11-16T20:13:42.478Z,76.80
2022-11-16T20:16:11.224Z,76.90
2022-11-16T20:18:44.391Z,76.80
2022-11-16T20:21:14.509Z,76.80
2022-11-16T20:23:45.604Z,76.80
2022-11-16T20:26:13.992Z,76.70
2022-11-16T20:28:42.928Z,76.70
2022-11-16T20:31:11.981Z,76.70
2022-11-16T20:33:40.008Z,76.80
2022-11-16T20:36:09.470Z,76.80
2022-11-16T20:38:37.949Z,76.70
2022-11-16T20:41:11.667Z,76.70
2022-11-16T20:43:40.393Z,76.70
2022-11-16T20:46:08.755Z,76.80
2022-11-16T20:48:36.764Z,76.80
2022-11-16T20:51:05.247Z,76.70
2022-11-16T20:53:33.680Z,76.70
2022-11-16T20:56:03.234Z,76.70
2022-11-16T20:58:40.022Z,76.60
2022-11-16T21:01:10.067Z,76.70
2022-11-16T21:03:38.412Z,76.60
2022-11-16T21:06:08.664Z,76.60
2022-11-16T21:08:36.948Z,76.60
2022-11-16T21:11:10.265Z,76.60
2022-11-16T21:13:56.983Z,76.70
2022-11-16T21:16:25.045Z,76.60
2022-11-16T21:18:54.108Z,76.60
2022-11-16T21:21:22.161Z,76.60
2022-11-16T21:23:52.561Z,76.60
2022-11-16T21:26:45.568Z,76.60
2022-11-16T21:29:14.980Z,76.60
2022-11-16T21:31:43.079Z,76.60
2022-11-16T21:34:11.127Z,76.50
2022-11-16T21:36:39.386Z,76.60
2022-11-16T21:39:07.551Z,76.60
2022-11-16T21:41:35.604Z,76.60
2022-11-16T21:44:03.684Z,76.60
2022-11-16T21:46:33.159Z,76.50
2022-11-16T21:49:01.348Z,76.60
2022-11-16T21:51:30.932Z,76.50
2022-11-16T21:53:58.960Z,76.60
2022-11-16T21:56:27.190Z,76.60
2022-11-16T21:58:55.413Z,76.60
2022-11-16T22:01:24.255Z,76.60
2022-11-16T22:04:07.725Z,76.70
2022-11-16T22:06:53.147Z,76.60
2022-11-16T22:09:21.630Z,76.50
2022-11-16T22:11:49.695Z,76.60
2022-11-16T22:14:17.722Z,76.60
2022-11-16T22:16:45.775Z,76.60
2022-11-16T22:19:15.179Z,76.60
2022-11-16T22:21:43.231Z,76.60
2022-11-16T22:24:11.295Z,76.50
2022-11-16T22:26:39.959Z,76.60
2022-11-16T22:29:08.002Z,76.60
2022-11-16T22:31:38.978Z,76.60
2022-11-16T22:34:07.302Z,76.60
2022-11-16T22:36:36.756Z,76.70
2022-11-16T22:39:04.908Z,76.70
2022-11-16T22:41:32.930Z,76.70
2022-11-16T22:44:01.060Z,76.60
2022-11-16T22:46:29.500Z,76.70
2022-11-16T22:48:57.629Z,76.70
2022-11-16T22:51:26.580Z,76.70
2022-11-16T22:53:56.199Z,76.60
2022-11-16T22:56:24.458Z,76.70
2022-11-16T22:58:52.644Z,76.60
2022-11-16T23:01:20.966Z,76.70
2022-11-16T23:03:49.069Z,76.60
2022-11-16T23:06:17.154Z,76.70
2022-11-16T23:08:45.211Z,76.70
2022-11-16T23:11:33.006Z,76.70
2022-11-16T23:14:18.291Z,76.70
2022-11-16T23:16:46.443Z,76.70
2022-11-16T23:19:33.129Z,76.70
2022-11-16T23:22:18.856Z,76.80
2022-11-16T23:25:04.242Z,76.70
2022-11-16T23:27:37.938Z,76.70
2022-11-16T23:30:12.204Z,76.70
2022-11-16T23:32:41.286Z,76.70
2022-11-16T23:35:09.596Z,76.70
2022-11-16T23:37:56.452Z,76.70
2022-11-16T23:40:25.422Z,76.70
2022-11-16T23:43:12.215Z,76.70
2022-11-16T23:45:40.300Z,76.70
2022-11-16T23:48:08.783Z,76.70
2022-11-16T23:50:36.988Z,76.70
2022-11-16T23:53:12.542Z,76.70
2022-11-16T23:55:40.757Z,76.80
2022-11-16T23:58:12.990Z,76.70
